createdAt,value
2022-08-11T00:01:21.108Z,3.60
2022-08-11T00:03:53.189Z,3.53
2022-08-11T00:06:29.685Z,4.10
2022-08-11T00:08:57.443Z,5.60
2022-08-11T00:11:38.887Z,8.77
2022-08-11T00:14:24.123Z,3.40
2022-08-11T00:17:10.786Z,3.38
2022-08-11T00:20:14.732Z,364.27
2022-08-11T00:22:31.069Z,211.20
2022-08-11T00:25:02.634Z,470.08
2022-08-11T00:27:38.281Z,618.97
2022-08-11T00:30:10.676Z,179.47
2022-08-11T00:32:39.076Z,167.48
2022-08-11T00:35:53.664Z,3.40
2022-08-11T00:37:59.849Z,6.40
2022-08-11T00:40:59.434Z,12.20
2022-08-11T00:43:29.112Z,7.23
2022-08-11T00:46:05.019Z,63.42
2022-08-11T00:48:34.823Z,206.73
2022-08-11T00:51:10.353Z,488.67
2022-08-11T00:54:01.238Z,127.72
2022-08-11T00:56:50.429Z,999.90
2022-08-11T00:59:38.266Z,999.90
2022-08-11T01:02:37.672Z,888.90
2022-08-11T01:05:30.550Z,946.30
2022-08-11T01:08:01.181Z,999.90
2022-08-11T01:10:51.087Z,999.90
2022-08-11T01:14:08.065Z,702.97
2022-08-11T01:16:59.498Z,999.90
2022-08-11T01:20:45.684Z,999.90
2022-08-11T01:22:37.862Z,999.90
2022-08-11T01:25:23.034Z,999.90
2022-08-11T01:28:27.802Z,656.83
2022-08-11T01:31:29.273Z,999.90
2022-08-11T01:34:15.946Z,999.90
2022-08-11T01:36:58.917Z,999.90
2022-08-11T01:39:56.058Z,999.90
2022-08-11T01:43:09.143Z,999.90
2022-08-11T01:45:49.076Z,101.75
2022-08-11T01:48:34.544Z,624.53
2022-08-11T01:51:45.092Z,999.90
2022-08-11T01:54:40.439Z,771.22
2022-08-11T01:57:13.073Z,674.55
2022-08-11T01:59:51.293Z,999.90
2022-08-11T02:02:47.529Z,712.53
2022-08-11T02:05:36.281Z,810.92
2022-08-11T02:08:19.693Z,999.90
2022-08-11T02:11:30.400Z,920.92
2022-08-11T02:14:22.400Z,999.90
2022-08-11T02:16:53.309Z,999.90
2022-08-11T02:20:13.649Z,999.90
2022-08-11T02:24:04.912Z,999.90
2022-08-11T02:26:26.835Z,999.90
2022-08-11T02:29:14.613Z,650.65
2022-08-11T02:32:28.903Z,958.13
2022-08-11T02:35:42.844Z,621.47
2022-08-11T02:39:00.816Z,344.25
2022-08-11T02:42:07.348Z,169.85
2022-08-11T02:45:23.035Z,13.15
2022-08-11T02:48:25.068Z,42.25
2022-08-11T02:51:01.029Z,98.35
2022-08-11T02:53:37.436Z,70.78
2022-08-11T02:56:17.973Z,15.67
2022-08-11T02:59:27.154Z,293.50
2022-08-11T03:02:18.416Z,88.45
2022-08-11T03:05:13.664Z,42.42
2022-08-11T03:07:40.383Z,276.20
2022-08-11T03:11:08.343Z,99.65
2022-08-11T03:13:59.920Z,599.97
2022-08-11T03:16:48.198Z,366.55
2022-08-11T03:19:33.624Z,454.25
2022-08-11T03:22:19.177Z,499.58
2022-08-11T03:25:15.682Z,659.00
2022-08-11T03:28:20.838Z,560.80
2022-08-11T03:30:56.841Z,681.92
2022-08-11T03:33:44.548Z,942.95
2022-08-11T03:36:17.135Z,999.90
2022-08-11T03:38:55.720Z,999.90
2022-08-11T03:42:02.026Z,999.90
2022-08-11T03:44:40.524Z,999.90
2022-08-11T03:47:29.956Z,999.90
2022-08-11T03:50:20.072Z,999.90
2022-08-11T03:52:53.758Z,999.90
2022-08-11T03:55:38.848Z,999.90
2022-08-11T03:58:31.986Z,966.65
2022-08-11T04:01:26.498Z,678.42
2022-08-11T04:04:50.704Z,918.22
2022-08-11T04:07:42.609Z,830.65
2022-08-11T04:10:59.765Z,943.30
2022-08-11T04:13:29.199Z,804.25
2022-08-11T04:16:21.770Z,938.87
2022-08-11T04:18:54.211Z,809.45
2022-08-11T04:21:49.783Z,744.77
2022-08-11T04:24:35.148Z,999.90
2022-08-11T04:27:41.142Z,954.33
2022-08-11T04:30:14.851Z,953.58
2022-08-11T04:33:09.520Z,944.65
2022-08-11T04:35:57.500Z,832.47
2022-08-11T04:39:00.023Z,878.17
2022-08-11T04:42:10.704Z,833.63
2022-08-11T04:45:05.384Z,781.67
2022-08-11T04:48:40.265Z,764.90
2022-08-11T04:51:44.052Z,707.35
2022-08-11T04:54:38.062Z,691.35
2022-08-11T04:57:33.138Z,535.53
2022-08-11T05:00:30.698Z,999.90
2022-08-11T05:03:06.081Z,999.90
2022-08-11T05:06:03.389Z,999.90
2022-08-11T05:08:52.765Z,999.90
2022-08-11T05:11:40.599Z,999.90
2022-08-11T05:14:59.577Z,999.90
2022-08-11T05:18:15.746Z,999.90
2022-08-11T05:21:12.507Z,999.90
2022-08-11T05:24:02.439Z,999.90
2022-08-11T05:26:55.463Z,999.90
2022-08-11T05:29:58.607Z,999.90
2022-08-11T05:32:48.677Z,999.90
2022-08-11T05:36:00.537Z,999.90
2022-08-11T05:38:39.798Z,999.90
2022-08-11T05:41:26.291Z,999.90
2022-08-11T05:44:20.234Z,999.90
2022-08-11T05:47:08.930Z,999.90
2022-08-11T05:49:57.884Z,999.90
2022-08-11T05:52:56.545Z,999.90
2022-08-11T05:55:53.986Z,999.90
2022-08-11T05:58:57.193Z,999.90
2022-08-11T06:01:32.035Z,999.90
2022-08-11T06:04:14.669Z,999.90
2022-08-11T06:07:02.956Z,999.90
2022-08-11T06:09:46.897Z,999.90
2022-08-11T06:12:21.883Z,999.90
2022-08-11T06:14:53.800Z,999.90
2022-08-11T06:17:26.285Z,999.90
2022-08-11T06:20:13.069Z,999.90
2022-08-11T06:22:43.717Z,999.90
2022-08-11T06:25:12.434Z,999.90
2022-08-11T06:27:41.854Z,999.90
2022-08-11T06:30:13.984Z,999.90
2022-08-11T06:32:45.916Z,999.90
2022-08-11T06:35:23.601Z,999.90
2022-08-11T06:37:59.146Z,999.90
2022-08-11T06:40:42.021Z,999.90
2022-08-11T06:43:23.639Z,999.90
2022-08-11T06:46:08.104Z,999.90
2022-08-11T06:48:39.245Z,999.90
2022-08-11T06:51:12.808Z,999.90
2022-08-11T06:54:03.017Z,999.90
2022-08-11T06:57:12.580Z,999.90
2022-08-11T07:00:02.596Z,999.90
2022-08-11T07:02:37.245Z,999.90
2022-08-11T07:05:17.430Z,999.90
2022-08-11T07:08:34.853Z,999.90
2022-08-11T07:11:44.048Z,999.90
2022-08-11T07:14:33.879Z,999.90
2022-08-11T07:17:05.469Z,999.90
2022-08-11T07:19:50.821Z,999.90
2022-08-11T07:22:44.804Z,999.90
2022-08-11T07:25:33.718Z,999.90
2022-08-11T07:28:23.138Z,999.90
2022-08-11T07:30:58.481Z,999.90
2022-08-11T07:34:07.042Z,999.90
2022-08-11T07:36:44.613Z,999.90
2022-08-11T07:39:20.990Z,999.90
2022-08-11T07:41:49.850Z,999.90
2022-08-11T07:44:17.909Z,999.90
2022-08-11T07:47:08.724Z,999.90
2022-08-11T07:49:56.619Z,999.90
2022-08-11T07:52:30.880Z,999.90
2022-08-11T07:55:03.955Z,999.90
2022-08-11T07:58:14.210Z,999.90
2022-08-11T08:01:01.278Z,999.90
2022-08-11T08:03:54.360Z,999.90
2022-08-11T08:06:41.012Z,999.90
2022-08-11T08:09:27.530Z,999.90
2022-08-11T08:12:13.916Z,999.90
2022-08-11T08:14:59.492Z,999.90
2022-08-11T08:18:09.915Z,999.90
2022-08-11T08:20:37.949Z,999.90
2022-08-11T08:23:05.971Z,999.90
2022-08-11T08:25:35.494Z,999.90
2022-08-11T08:28:06.214Z,999.90
2022-08-11T08:30:49.801Z,999.90
2022-08-11T08:33:21.516Z,999.90
2022-08-11T08:35:54.192Z,999.90
2022-08-11T08:38:23.092Z,999.90
2022-08-11T08:40:55.807Z,999.90
2022-08-11T08:43:24.438Z,999.90
2022-08-11T08:45:55.393Z,999.90
2022-08-11T08:48:25.883Z,999.90
2022-08-11T08:51:21.989Z,999.90
2022-08-11T08:53:53.783Z,999.90
2022-08-11T08:56:30.523Z,999.90
2022-08-11T08:59:00.386Z,999.90
2022-08-11T09:01:31.219Z,999.90
2022-08-11T09:04:05.098Z,999.90
2022-08-11T09:06:35.569Z,999.90
2022-08-11T09:09:02.757Z,999.90
2022-08-11T09:11:48.011Z,999.90
2022-08-11T09:14:15.653Z,999.90
2022-08-11T09:16:43.813Z,999.90
2022-08-11T09:19:13.846Z,999.90
2022-08-11T09:22:12.382Z,999.90
2022-08-11T09:24:59.096Z,999.90
2022-08-11T09:27:27.409Z,999.90
2022-08-11T09:29:55.748Z,999.90
2022-08-11T09:32:23.571Z,999.90
2022-08-11T09:34:52.163Z,999.90
2022-08-11T09:37:54.295Z,999.90
2022-08-11T09:40:30.503Z,999.90
2022-08-11T09:43:23.552Z,999.90
2022-08-11T09:45:52.527Z,999.90
2022-08-11T09:48:28.140Z,999.90
2022-08-11T09:51:00.401Z,999.90
2022-08-11T09:53:37.140Z,999.90
2022-08-11T09:56:35.346Z,999.90
2022-08-11T09:59:04.503Z,999.90
2022-08-11T10:01:34.887Z,999.90
2022-08-11T10:04:11.646Z,999.90
2022-08-11T10:06:58.396Z,999.90
2022-08-11T10:09:26.475Z,999.90
2022-08-11T10:11:58.475Z,999.90
2022-08-11T10:14:45.923Z,999.90
2022-08-11T10:17:14.943Z,999.90
2022-08-11T10:19:45.603Z,999.90
2022-08-11T10:22:50.903Z,999.90
2022-08-11T10:25:36.187Z,999.90
2022-08-11T10:28:17.182Z,999.90
2022-08-11T10:31:13.778Z,999.90
2022-08-11T10:34:01.920Z,999.90
2022-08-11T10:36:50.737Z,999.90
2022-08-11T10:39:22.019Z,999.90
2022-08-11T10:42:12.297Z,999.90
2022-08-11T10:44:44.588Z,999.90
2022-08-11T10:47:34.533Z,999.90
2022-08-11T10:50:28.385Z,999.90
2022-08-11T10:53:16.416Z,999.90
2022-08-11T10:58:48.408Z,999.90
2022-08-11T11:01:24.334Z,999.90
2022-08-11T11:03:52.730Z,999.90
2022-08-11T11:06:50.702Z,999.90
2022-08-11T11:09:24.239Z,999.90
2022-08-11T11:12:15.217Z,999.90
2022-08-11T11:15:02.082Z,999.90
2022-08-11T11:17:52.016Z,999.90
2022-08-11T11:20:47.465Z,999.90
2022-08-11T11:23:25.451Z,999.90
2022-08-11T11:26:11.382Z,999.90
2022-08-11T11:28:47.216Z,999.90
2022-08-11T11:31:42.752Z,999.90
2022-08-11T11:34:28.367Z,999.90
2022-08-11T11:37:00.753Z,999.90
2022-08-11T11:39:30.310Z,999.90
2022-08-11T11:42:04.265Z,999.90
2022-08-11T11:44:33.132Z,999.90
2022-08-11T11:47:01.386Z,999.90
2022-08-11T11:49:30.042Z,999.90
2022-08-11T11:51:59.275Z,999.90
2022-08-11T11:54:30.136Z,999.90
2022-08-11T11:57:18.764Z,999.90
2022-08-11T12:00:04.638Z,999.90
2022-08-11T12:02:31.619Z,999.90
2022-08-11T12:04:58.827Z,999.90
2022-08-11T12:08:04.953Z,999.90
2022-08-11T12:10:39.071Z,999.90
2022-08-11T12:13:25.143Z,999.90
2022-08-11T12:16:31.875Z,999.90
2022-08-11T12:18:42.800Z,999.90
2022-08-11T12:21:11.459Z,999.90
2022-08-11T12:24:04.098Z,999.90
2022-08-11T12:27:15.128Z,999.90
2022-08-11T12:29:41.170Z,999.90
2022-08-11T12:32:11.383Z,90.00
2022-08-11T12:34:38.207Z,999.90
2022-08-11T12:37:10.765Z,145.93
2022-08-11T12:40:10.837Z,65.37
2022-08-11T12:43:08.290Z,5.67
2022-08-11T12:45:48.839Z,5.80
2022-08-11T12:49:00.306Z,999.90
2022-08-11T12:52:12.110Z,772.83
2022-08-11T12:54:49.807Z,996.80
2022-08-11T12:57:42.902Z,999.90
2022-08-11T13:00:29.097Z,999.90
2022-08-11T13:03:14.640Z,999.90
2022-08-11T13:05:44.927Z,999.90
2022-08-11T13:08:15.298Z,999.90
2022-08-11T13:11:02.053Z,825.80
2022-08-11T13:13:54.623Z,236.98
2022-08-11T13:16:17.697Z,795.55
2022-08-11T13:18:45.071Z,627.50
2022-08-11T13:21:20.603Z,999.90
2022-08-11T13:23:59.728Z,649.65
2022-08-11T13:26:47.330Z,85.40
2022-08-11T13:29:26.388Z,399.23
2022-08-11T13:31:55.882Z,999.90
2022-08-11T13:34:26.791Z,999.90
2022-08-11T13:36:57.022Z,999.90
2022-08-11T13:39:26.520Z,999.90
2022-08-11T13:41:59.397Z,999.90
2022-08-11T13:44:28.812Z,999.90
2022-08-11T13:47:02.455Z,999.90
2022-08-11T13:49:31.077Z,999.90
2022-08-11T13:51:59.052Z,999.90
2022-08-11T13:54:31.622Z,999.90
2022-08-11T13:57:03.201Z,999.90
2022-08-11T13:59:39.524Z,962.42
2022-08-11T14:02:29.393Z,999.90
2022-08-11T14:05:17.614Z,998.22
2022-08-11T14:07:59.751Z,913.70
2022-08-11T14:10:30.131Z,778.53
2022-08-11T14:13:21.170Z,659.10
2022-08-11T14:15:50.024Z,725.00
2022-08-11T14:18:23.644Z,863.20
2022-08-11T14:21:14.794Z,672.60
2022-08-11T14:23:44.953Z,412.23
2022-08-11T14:26:28.196Z,123.50
2022-08-11T14:29:00.509Z,598.72
2022-08-11T14:31:30.187Z,521.80
2022-08-11T14:34:02.085Z,705.28
2022-08-11T14:36:35.165Z,553.28
2022-08-11T14:39:05.816Z,328.20
2022-08-11T14:42:09.835Z,237.23
2022-08-11T14:44:59.688Z,334.63
2022-08-11T14:47:29.996Z,779.28
2022-08-11T14:50:10.209Z,628.80
2022-08-11T14:52:59.584Z,999.90
2022-08-11T14:55:47.840Z,999.90
2022-08-11T14:58:20.229Z,801.07
2022-08-11T15:00:50.227Z,999.90
2022-08-11T15:03:17.816Z,856.80
2022-08-11T15:05:58.424Z,999.90
2022-08-11T15:08:56.853Z,22.00
2022-08-11T15:11:49.546Z,49.80
2022-08-11T15:14:41.435Z,19.90
2022-08-11T15:17:10.130Z,2.10
2022-08-11T15:19:59.630Z,316.40
2022-08-11T15:22:45.060Z,228.77
2022-08-11T15:25:12.394Z,242.57
2022-08-11T15:27:59.645Z,2.85
2022-08-11T15:30:47.269Z,2.70
2022-08-11T15:33:35.593Z,1.70
2022-08-11T15:36:25.460Z,1.73
2022-08-11T15:38:59.459Z,702.55
2022-08-11T15:41:59.038Z,174.57
2022-08-11T15:45:04.886Z,10.05
2022-08-11T15:47:44.490Z,2.10
2022-08-11T15:50:19.643Z,4.60
2022-08-11T15:53:17.357Z,2.35
2022-08-11T15:55:45.108Z,10.00
2022-08-11T15:58:31.747Z,2.33
2022-08-11T16:01:19.166Z,46.95
2022-08-11T16:04:12.544Z,6.72
2022-08-11T16:06:47.486Z,323.17
2022-08-11T16:09:19.112Z,540.00
2022-08-11T16:11:48.181Z,18.77
2022-08-11T16:14:35.899Z,3.95
2022-08-11T16:17:04.582Z,16.65
2022-08-11T16:19:36.030Z,2.42
2022-08-11T16:22:10.321Z,7.65
2022-08-11T16:27:03.578Z,34.78
2022-08-11T16:27:35.370Z,61.63
2022-08-11T16:30:03.773Z,527.97
2022-08-11T16:32:32.119Z,237.50
2022-08-11T16:35:24.895Z,2.10
2022-08-11T16:38:12.365Z,2.55
2022-08-11T16:40:41.587Z,340.52
2022-08-11T16:43:32.041Z,985.40
2022-08-11T16:46:19.614Z,2.30
2022-08-11T16:48:48.648Z,214.00
2022-08-11T16:51:16.267Z,125.43
2022-08-11T16:53:59.607Z,723.25
2022-08-11T16:56:43.225Z,999.90
2022-08-11T16:59:16.970Z,999.90
2022-08-11T17:02:08.424Z,32.38
2022-08-11T17:05:09.533Z,728.78
2022-08-11T17:07:58.165Z,26.73
2022-08-11T17:10:55.431Z,59.30
2022-08-11T17:13:32.234Z,12.80
2022-08-11T17:16:09.367Z,183.50
2022-08-11T17:18:59.843Z,98.90
2022-08-11T17:21:29.842Z,379.48
2022-08-11T17:24:10.294Z,773.95
2022-08-11T17:26:55.647Z,999.90
2022-08-11T17:29:53.856Z,889.28
2022-08-11T17:33:00.635Z,899.72
2022-08-11T17:35:38.686Z,999.90
2022-08-11T17:38:10.263Z,999.90
2022-08-11T17:41:05.203Z,999.90
2022-08-11T17:43:51.746Z,999.90
2022-08-11T17:46:38.260Z,4.50
2022-08-11T17:49:08.568Z,2.75
2022-08-11T17:51:55.932Z,61.20
2022-08-11T17:54:42.820Z,2.60
2022-08-11T17:57:30.086Z,10.90
2022-08-11T17:59:58.607Z,738.63
2022-08-11T18:02:57.909Z,359.40
2022-08-11T18:05:49.232Z,3.00
2022-08-11T18:08:37.973Z,2.50
2022-08-11T18:12:07.127Z,33.97
2022-08-11T18:14:33.101Z,2.42
2022-08-11T18:17:18.543Z,2.07
2022-08-11T18:20:04.161Z,2.70
2022-08-11T18:22:57.412Z,14.90
2022-08-11T18:25:49.304Z,4.88
2022-08-11T18:28:40.265Z,3.70
2022-08-11T18:31:30.216Z,3.30
2022-08-11T18:34:19.735Z,4.10
2022-08-11T18:37:25.986Z,3.58
2022-08-11T18:40:24.036Z,6.25
2022-08-11T18:43:11.489Z,2.90
2022-08-11T18:46:06.525Z,3.50
2022-08-11T18:48:56.485Z,999.90
2022-08-11T18:51:44.390Z,999.90
2022-08-11T18:54:32.516Z,999.90
2022-08-11T18:57:22.509Z,999.90
2022-08-11T19:00:10.444Z,999.90
2022-08-11T19:02:58.521Z,999.90
2022-08-11T19:06:32.595Z,999.90
2022-08-11T19:08:58.123Z,999.90
2022-08-11T19:11:45.129Z,999.90
2022-08-11T19:14:32.195Z,999.90
2022-08-11T19:17:44.141Z,902.63
2022-08-11T19:20:32.558Z,526.30
2022-08-11T19:23:18.414Z,999.90
2022-08-11T19:26:05.886Z,906.97
2022-08-11T19:28:53.051Z,999.90
2022-08-11T19:31:44.341Z,999.90
2022-08-11T19:34:34.315Z,881.03
2022-08-11T19:37:24.622Z,999.90
2022-08-11T19:40:16.795Z,999.90
2022-08-11T19:43:03.465Z,999.90
2022-08-11T19:45:52.663Z,999.90
2022-08-11T19:48:41.276Z,999.90
2022-08-11T19:51:28.900Z,999.90
2022-08-11T19:54:15.504Z,999.90
2022-08-11T19:57:03.089Z,999.90
2022-08-11T19:59:50.373Z,999.90
2022-08-11T20:02:36.337Z,999.90
2022-08-11T20:05:23.442Z,999.90
2022-08-11T20:08:09.568Z,998.65
2022-08-11T20:10:56.415Z,942.83
2022-08-11T20:13:44.668Z,999.90
2022-08-11T20:16:33.394Z,999.90
2022-08-11T20:19:25.994Z,999.90
2022-08-11T20:22:26.691Z,999.90
2022-08-11T20:25:13.470Z,999.90
2022-08-11T20:28:02.051Z,999.90
2022-08-11T20:30:51.828Z,999.90
2022-08-11T20:33:39.551Z,999.90
2022-08-11T20:36:26.113Z,999.90
2022-08-11T20:39:13.459Z,999.90
2022-08-11T20:42:00.500Z,999.90
2022-08-11T20:44:47.482Z,999.90
2022-08-11T20:47:56.076Z,901.85
2022-08-11T20:53:52.235Z,999.90
2022-08-11T20:56:39.697Z,999.90
2022-08-11T20:59:27.136Z,999.90
2022-08-11T21:02:14.261Z,999.90
2022-08-11T21:05:00.199Z,769.78
2022-08-11T21:10:59.405Z,999.90
2022-08-11T21:13:48.260Z,999.90
2022-08-11T21:16:42.226Z,999.90
2022-08-11T21:20:00.793Z,999.90
2022-08-11T21:22:59.417Z,999.90
2022-08-11T21:25:59.353Z,944.17
2022-08-11T21:28:46.949Z,999.90
2022-08-11T21:31:34.051Z,419.60
2022-08-11T21:34:21.661Z,262.20
2022-08-11T21:37:08.626Z,920.60
2022-08-11T21:39:55.178Z,999.90
2022-08-11T21:42:42.529Z,999.90
2022-08-11T21:45:29.004Z,999.90
2022-08-11T21:48:15.563Z,999.90
2022-08-11T21:51:00.820Z,679.78
2022-08-11T21:53:46.749Z,999.90
2022-08-11T21:56:33.483Z,999.90
2022-08-11T21:59:20.455Z,999.90
2022-08-11T22:02:12.446Z,999.90
2022-08-11T22:04:59.814Z,999.90
2022-08-11T22:07:45.875Z,780.40
2022-08-11T22:10:41.834Z,999.90
2022-08-11T22:13:31.899Z,999.90
2022-08-11T22:16:18.839Z,999.90
2022-08-11T22:19:05.901Z,999.90
2022-08-11T22:22:00.997Z,999.90
2022-08-11T22:24:51.275Z,958.80
2022-08-11T22:27:36.765Z,999.90
2022-08-11T22:30:24.419Z,859.00
2022-08-11T22:33:11.045Z,972.75
2022-08-11T22:35:59.488Z,979.22
2022-08-11T22:38:46.081Z,999.90
2022-08-11T22:41:31.728Z,999.90
2022-08-11T22:44:17.534Z,999.90
2022-08-11T22:47:03.594Z,999.90
2022-08-11T22:49:57.672Z,999.90
2022-08-11T22:52:45.173Z,999.90
2022-08-11T22:55:31.385Z,999.90
2022-08-11T22:58:17.278Z,999.90
2022-08-11T23:01:03.283Z,999.90
2022-08-11T23:03:50.147Z,999.90
2022-08-11T23:06:38.134Z,999.90
2022-08-11T23:09:25.252Z,999.90
2022-08-11T23:12:11.787Z,999.90
2022-08-11T23:14:59.580Z,999.90
2022-08-11T23:17:46.568Z,999.90
2022-08-11T23:20:43.149Z,999.90
2022-08-11T23:23:33.689Z,999.90
2022-08-11T23:26:19.530Z,999.90
2022-08-11T23:29:06.273Z,882.20
2022-08-11T23:31:55.054Z,294.50
2022-08-11T23:35:04.162Z,824.15
2022-08-11T23:37:52.997Z,148.40
2022-08-11T23:40:38.559Z,7.10
2022-08-11T23:43:24.158Z,111.85
2022-08-11T23:46:09.690Z,247.07
2022-08-11T23:48:57.765Z,487.13
2022-08-11T23:51:45.151Z,517.53
2022-08-11T23:54:36.950Z,6.00
2022-08-11T23:57:23.659Z,3.70
